Open Full Screen Window  High Contrast Mode
Wind Gusting 00 knots
06
September 05, 2015 12:12 PM EDT
Weather Information
Wind Direction
  200 °
Wind Speed
  06 kt (7 mph)
Wind Gust
  00 kt (0 mph)
Altimeter
30.11 in
Visibility
10 SM
Temperature
26° C
79° F
Dewpoint
21° C
70° F
Humidity
74%
1hr Rain Fall
00.00 in.
24hr Rain Fall
00.00 in.
Sky Condition
Broken @ 2,500 ft
Broken @ 1,900 ft
MVFR

METAR KIKW 051612Z AUTO 20006KT 10SM BKN019 BKN025 26/21 A3011 RMK AO2 T02600206

*Background is not an actual portrayal of the airport.